Time;durP1;ratioP1;P1;durP2;ratioP2;P2;SDS_P1;SDS_P2;PMS_P1;PMS_P2;Temp;Humidity;BMP_temperature;BMP_pressure;BME280_temperature;BME280_humidity;BME280_pressure;Samples;Min_cycle;Max_cycle;Signal;HPM_P1;HPM_P2
2022/04/24 15:25:50;;;;;;;;;13.00;12.67;;;;;21.94;39.75;99731.61;110584;1259;21191;-51
2022/04/24 15:28:18;;;;;;;;;12.33;12.00;;;;;21.77;37.88;99731.22;110513;1259;19310;-55
2022/04/24 15:30:45;;;;;;;;;13.00;12.00;;;;;21.72;36.98;99731.88;110479;1259;20852;-56
2022/04/24 15:33:12;;;;;;;;;15.33;14.00;;;;;21.52;36.08;99727.95;110353;1259;23704;-58
2022/04/24 15:35:39;;;;;;;;;16.00;14.00;;;;;21.47;35.92;99733.81;110627;1249;19230;-56
2022/04/24 15:38:07;;;;;;;;;14.00;13.00;;;;;21.47;35.47;99734.23;110280;1261;19561;-53
2022/04/24 15:40:34;;;;;;;;;19.67;15.67;;;;;21.48;35.50;99730.74;110362;1260;20888;-57
2022/04/24 15:43:02;;;;;;;;;15.33;13.00;;;;;21.50;35.49;99734.73;110183;1261;19238;-56
2022/04/24 15:45:30;;;;;;;;;13.00;13.00;;;;;21.50;35.22;99734.14;110238;1261;19657;-54
2022/04/24 15:47:58;;;;;;;;;13.33;13.00;;;;;21.52;34.87;99733.90;110327;1261;21145;-57
2022/04/24 15:50:27;;;;;;;;;14.00;14.00;;;;;21.52;35.16;99732.39;110355;1261;25944;-54
2022/04/24 15:52:55;;;;;;;;;12.00;12.00;;;;;21.50;35.18;99728.70;110452;1260;23232;-54
2022/04/24 15:55:23;;;;;;;;;14.00;14.00;;;;;21.46;35.22;99727.73;110469;1261;23762;-58
2022/04/24 15:57:55;;;;;;;;;14.00;13.00;;;;;21.37;35.45;99730.13;110457;1260;23589;-54
2022/04/24 16:00:22;;;;;;;;;13.33;13.00;;;;;21.34;35.45;99732.95;110440;1260;21187;-55
2022/04/24 16:02:51;;;;;;;;;14.00;14.00;;;;;21.36;35.73;99735.45;110483;1260;20441;-53
2022/04/24 16:05:19;;;;;;;;;16.67;16.67;;;;;21.37;35.71;99732.64;110477;1262;19663;-55
2022/04/24 16:07:47;;;;;;;;;16.00;14.00;;;;;21.44;36.11;99740.08;110407;1260;19519;-55
2022/04/24 16:10:14;;;;;;;;;13.00;13.00;;;;;21.44;35.96;99735.42;110404;1261;20312;-55
2022/04/24 16:12:42;;;;;;;;;16.00;14.00;;;;;21.33;35.89;99729.34;110272;1261;19284;-56
2022/04/24 16:15:09;;;;;;;;;16.00;16.00;;;;;21.25;35.92;99734.70;110463;1260;22517;-57
2022/04/24 16:17:37;;;;;;;;;17.33;17.00;;;;;21.21;35.92;99737.13;110438;1261;23764;-54
2022/04/24 16:20:04;;;;;;;;;14.00;14.00;;;;;21.20;36.46;99735.61;110445;1261;20814;-59
2022/04/24 16:22:32;;;;;;;;;16.00;14.33;;;;;21.13;36.60;99734.16;110434;1261;19634;-52
2022/04/24 16:24:59;;;;;;;;;16.67;15.33;;;;;21.23;36.52;99730.96;110483;1261;20379;-56
2022/04/24 16:27:27;;;;;;;;;14.00;14.00;;;;;21.35;37.03;99731.46;110452;1261;23572;-57
2022/04/24 16:30:00;;;;;;;;;14.00;14.00;;;;;21.45;37.11;99733.09;110434;1261;21026;-56
2022/04/24 16:32:28;;;;;;;;;13.00;12.67;;;;;21.51;37.08;99729.41;110423;1261;20809;-54
2022/04/24 16:34:55;;;;;;;;;14.00;13.50;;;;;21.50;37.04;99733.02;110407;1261;23585;-51
2022/04/24 16:37:22;;;;;;;;;16.00;14.00;;;;;21.50;37.40;99733.47;110462;1261;19558;-57
2022/04/24 16:39:49;;;;;;;;;13.33;12.67;;;;;21.53;37.59;99735.54;110483;1260;22619;-52
2022/04/24 16:42:17;;;;;;;;;14.67;14.00;;;;;21.55;37.58;99734.32;110459;1261;19271;-53
2022/04/24 16:44:44;;;;;;;;;12.00;12.00;;;;;21.59;37.75;99737.06;110435;1261;23529;-53
2022/04/24 16:47:12;;;;;;;;;14.00;13.00;;;;;21.66;37.90;99739.13;110450;1261;20452;-53
2022/04/24 16:49:39;;;;;;;;;14.00;14.00;;;;;21.69;38.25;99739.84;110445;1261;19250;-54
2022/04/24 17:00:23;;;;;;;;;18.00;17.00;;;;;21.58;39.61;99744.19;110239;1261;19547;-55
2022/04/24 17:02:50;;;;;;;;;16.00;16.00;;;;;21.59;40.35;99748.96;110337;1261;21999;-54
2022/04/24 17:05:18;;;;;;;;;17.00;16.33;;;;;21.65;40.69;99748.53;110421;1261;19558;-53
2022/04/24 17:07:46;;;;;;;;;17.67;14.00;;;;;21.67;40.87;99752.39;110423;1261;19712;-53
2022/04/24 17:10:13;;;;;;;;;14.00;14.00;;;;;21.70;40.86;99753.95;110409;1261;23731;-50
2022/04/24 17:12:41;;;;;;;;;15.33;15.33;;;;;21.71;40.79;99759.20;110373;1261;19519;-53
2022/04/24 17:15:08;;;;;;;;;15.33;14.67;;;;;21.70;41.05;99758.53;110392;1261;19616;-55
2022/04/24 17:17:35;;;;;;;;;14.00;13.00;;;;;21.72;41.58;99757.73;110403;1261;20349;-53
2022/04/24 17:20:02;;;;;;;;;13.00;13.00;;;;;21.71;41.75;99758.77;110407;1261;23636;-53
2022/04/24 17:22:30;;;;;;;;;16.67;16.00;;;;;21.71;41.95;99758.83;110383;1261;21661;-54
2022/04/24 17:24:57;;;;;;;;;14.00;13.00;;;;;21.70;41.89;99760.36;110459;1261;20721;-51
2022/04/24 17:27:24;;;;;;;;;15.33;15.33;;;;;21.72;41.99;99759.62;110462;1261;23575;-54
2022/04/24 17:29:52;;;;;;;;;14.00;14.00;;;;;21.74;42.00;99760.04;110418;1260;20389;-52
2022/04/24 17:32:20;;;;;;;;;14.00;14.00;;;;;21.76;42.52;99759.54;110451;1260;22307;-56
2022/04/24 17:34:48;;;;;;;;;12.00;12.00;;;;;21.75;44.36;99761.29;110409;1261;23405;-53
2022/04/24 17:37:15;;;;;;;;;14.33;14.00;;;;;21.74;43.53;99764.36;110467;1261;19583;-53
2022/04/24 17:39:42;;;;;;;;;14.67;13.00;;;;;21.76;43.43;99762.69;110446;1261;20726;-55
2022/04/24 17:42:10;;;;;;;;;14.00;13.50;;;;;21.75;43.12;99764.10;110444;1262;19832;-53
2022/04/24 17:44:37;;;;;;;;;14.00;13.00;;;;;21.73;43.31;99765.36;110449;1261;23113;-52
2022/04/24 17:47:05;;;;;;;;;10.67;10.00;;;;;21.77;42.98;99763.10;110409;1260;23275;-50
2022/04/24 17:49:32;;;;;;;;;13.00;11.33;;;;;21.81;43.58;99763.28;110400;1261;23004;-51
2022/04/24 17:51:59;;;;;;;;;14.00;14.00;;;;;21.82;43.77;99756.70;110496;1261;21017;-51
2022/04/24 17:54:26;;;;;;;;;14.00;13.33;;;;;21.85;43.43;99758.33;110385;1261;20503;-54
2022/04/24 17:56:54;;;;;;;;;13.00;11.33;;;;;21.84;43.38;99756.08;110416;1261;19374;-53
2022/04/24 17:59:21;;;;;;;;;14.67;14.67;;;;;21.84;43.76;99754.10;110405;1261;20062;-53
2022/04/24 18:01:51;;;;;;;;;15.00;13.67;;;;;21.84;43.98;99754.31;110438;1261;20350;-54
2022/04/24 18:04:18;;;;;;;;;15.00;14.00;;;;;21.84;43.79;99752.26;110486;1261;19710;-52
2022/04/24 18:06:45;;;;;;;;;11.00;11.00;;;;;21.89;44.17;99753.27;110456;1261;21125;-53
2022/04/24 18:09:13;;;;;;;;;13.33;13.33;;;;;21.92;44.37;99758.14;110416;1261;20374;-52
2022/04/24 18:11:41;;;;;;;;;14.00;13.33;;;;;21.94;44.48;99760.73;110447;1261;23460;-53
2022/04/24 18:14:08;;;;;;;;;14.00;13.00;;;;;21.93;43.90;99763.54;110394;1261;19481;-57
2022/04/24 18:16:35;;;;;;;;;13.00;12.00;;;;;21.90;44.27;99763.89;110428;1261;21900;-51
2022/04/24 18:19:06;;;;;;;;;14.33;13.33;;;;;21.86;44.83;99768.79;110295;1260;250417;-53
2022/04/24 18:21:34;;;;;;;;;11.00;10.67;;;;;21.83;44.49;99772.35;110422;1260;23129;-55
2022/04/24 18:24:01;;;;;;;;;12.50;11.00;;;;;21.82;44.70;99778.30;110411;1261;22858;-54
2022/04/24 18:26:28;;;;;;;;;14.00;13.00;;;;;21.79;44.94;99775.49;110424;1260;23020;-53
2022/04/24 18:28:56;;;;;;;;;12.33;12.33;;;;;21.78;44.83;99782.55;110440;1261;19564;-54
2022/04/24 18:31:23;;;;;;;;;14.33;12.67;;;;;21.76;44.90;99786.98;110505;1261;20472;-56
2022/04/24 18:33:50;;;;;;;;;12.67;12.67;;;;;21.75;44.66;99785.84;110483;1261;25636;-57
2022/04/24 18:39:02;;;;;;;;;17.50;14.00;;;;;21.73;44.56;99795.83;110414;1260;20995;-54
2022/04/24 18:41:29;;;;;;;;;12.33;12.33;;;;;21.73;44.59;99801.41;110475;1260;19340;-50
2022/04/24 18:43:58;;;;;;;;;12.00;12.00;;;;;21.73;44.64;99800.69;110418;1261;19558;-54
2022/04/24 18:46:25;;;;;;;;;14.00;14.00;;;;;21.73;44.61;99801.61;110451;1261;23273;-53
2022/04/24 18:48:52;;;;;;;;;12.50;10.00;;;;;21.72;44.65;99804.77;110423;1261;22995;-56
2022/04/24 18:51:19;;;;;;;;;11.67;11.33;;;;;21.73;44.60;99804.34;110447;1261;20074;-53
2022/04/24 18:53:47;;;;;;;;;11.67;11.00;;;;;21.74;44.39;99804.89;110439;1261;20274;-53
2022/04/24 18:56:14;;;;;;;;;13.50;13.00;;;;;21.74;44.31;99816.55;110448;1261;19283;-54
2022/04/24 18:58:42;;;;;;;;;13.00;12.00;;;;;21.74;44.30;99816.21;110431;1261;19878;-53
2022/04/24 19:01:09;;;;;;;;;13.00;11.00;;;;;21.74;44.44;99824.19;110501;1261;20498;-53
2022/04/24 19:03:36;;;;;;;;;13.00;13.00;;;;;21.73;44.48;99828.17;110427;1261;19123;-55
2022/04/24 19:08:51;;;;;;;;;12.00;12.00;;;;;21.72;44.22;99831.92;110175;1265;20521;-56
2022/04/24 19:11:20;;;;;;;;;10.67;9.00;;;;;21.72;44.35;99830.88;110102;1265;19294;-54
2022/04/24 19:13:48;;;;;;;;;12.33;12.00;;;;;21.72;44.12;99836.52;110132;1265;19784;-53
2022/04/24 19:16:15;;;;;;;;;10.67;10.00;;;;;21.72;44.28;99836.11;110153;1265;20347;-56
2022/04/24 19:18:42;;;;;;;;;13.00;10.67;;;;;21.72;44.21;99838.04;110109;1264;19304;-55
2022/04/24 19:21:10;;;;;;;;;11.00;11.00;;;;;21.73;44.09;99842.70;110108;1265;19722;-52
2022/04/24 19:23:37;;;;;;;;;12.00;12.00;;;;;21.74;44.14;99846.44;110141;1264;22143;-54
2022/04/24 19:26:05;;;;;;;;;10.33;10.00;;;;;21.73;43.90;99842.41;110104;1265;23483;-52
2022/04/24 19:28:32;;;;;;;;;14.00;12.00;;;;;21.76;43.89;99847.63;110097;1265;23261;-52
2022/04/24 19:30:59;;;;;;;;;11.00;11.00;;;;;21.78;44.05;99845.23;110211;1264;20365;-53
2022/04/24 19:33:27;;;;;;;;;11.00;10.00;;;;;21.81;43.72;99848.84;110104;1265;23356;-52
2022/04/24 19:35:54;;;;;;;;;10.33;10.33;;;;;21.82;43.99;99848.92;110159;1265;19650;-53
2022/04/24 19:38:21;;;;;;;;;10.00;9.00;;;;;21.83;44.48;99849.70;110080;1264;20316;-54
2022/04/24 19:40:48;;;;;;;;;10.00;10.00;;;;;21.89;44.63;99851.39;110073;1265;23471;-49
2022/04/24 19:43:16;;;;;;;;;12.00;12.00;;;;;21.94;44.99;99853.13;110146;1265;22822;-53
2022/04/24 19:45:44;;;;;;;;;13.00;11.00;;;;;21.96;45.63;99856.70;110149;1261;22365;-53
2022/04/24 19:50:58;;;;;;;;;16.00;14.00;;;;;22.01;45.76;99854.57;110389;1261;20955;-52
2022/04/24 19:53:25;;;;;;;;;12.67;12.00;;;;;22.02;45.67;99854.40;110460;1261;22665;-54
2022/04/24 19:55:53;;;;;;;;;10.00;9.00;;;;;22.02;45.85;99853.90;110479;1261;23327;-50
2022/04/24 19:58:20;;;;;;;;;12.67;10.00;;;;;22.02;46.03;99855.48;110484;1260;23360;-51
2022/04/24 20:00:47;;;;;;;;;11.00;11.00;;;;;22.04;45.97;99861.28;110479;1261;20267;-51
2022/04/24 20:03:14;;;;;;;;;13.00;12.00;;;;;22.03;46.03;99859.44;110457;1261;19079;-54
2022/04/24 20:05:42;;;;;;;;;10.33;10.33;;;;;21.99;46.06;99858.84;110411;1261;19532;-56
2022/04/24 20:08:10;;;;;;;;;11.00;11.00;;;;;22.01;45.84;99860.77;110325;1261;20291;-56
2022/04/24 20:10:37;;;;;;;;;14.50;14.00;;;;;22.00;45.53;99864.46;110417;1260;20234;-54
2022/04/24 20:13:04;;;;;;;;;11.33;11.33;;;;;21.98;44.82;99860.48;110385;1261;24096;-53
2022/04/24 20:15:31;;;;;;;;;13.00;11.00;;;;;21.93;44.62;99861.14;110409;1261;20280;-50
2022/04/24 20:17:59;;;;;;;;;12.50;11.00;;;;;21.90;44.23;99861.89;110451;1261;19328;-54
2022/04/24 20:20:26;;;;;;;;;14.00;11.00;;;;;21.87;44.96;99859.23;110424;1261;19608;-53
2022/04/24 20:22:53;;;;;;;;;13.33;12.33;;;;;21.83;45.09;99858.59;110460;1261;20407;-51
2022/04/24 20:25:21;;;;;;;;;13.00;13.00;;;;;21.82;45.08;99862.20;110492;1261;19200;-53
2022/04/24 20:27:49;;;;;;;;;10.67;10.67;;;;;21.81;44.95;99855.55;110553;1261;19634;-49
2022/04/24 20:30:17;;;;;;;;;11.00;10.50;;;;;21.80;44.92;99860.96;110436;1261;20786;-53
2022/04/24 20:32:44;;;;;;;;;12.67;12.00;;;;;21.80;44.94;99854.24;110448;1261;23129;-55
2022/04/24 20:35:11;;;;;;;;;13.33;13.00;;;;;21.80;44.67;99849.52;110398;1261;19696;-52
2022/04/24 20:37:38;;;;;;;;;13.00;11.00;;;;;21.80;44.64;99848.63;110389;1261;24199;-54
2022/04/24 20:40:06;;;;;;;;;11.67;11.00;;;;;21.80;44.64;99849.89;110483;1261;19722;-53
2022/04/24 20:42:33;;;;;;;;;11.67;11.00;;;;;21.80;44.53;99848.42;110433;1261;19427;-53
2022/04/24 20:45:00;;;;;;;;;11.00;11.00;;;;;21.80;44.37;99854.13;110413;1261;23126;-55
2022/04/24 20:47:28;;;;;;;;;12.50;11.00;;;;;21.80;44.42;99852.66;110449;1260;23793;-53
2022/04/24 20:49:55;;;;;;;;;11.00;10.00;;;;;21.79;44.33;99853.67;110436;1260;20033;-54
2022/04/24 20:52:23;;;;;;;;;11.00;11.00;;;;;21.80;44.27;99850.60;110494;1261;21338;-53
2022/04/24 20:54:51;;;;;;;;;13.00;12.00;;;;;21.79;44.26;99851.83;110463;1261;19102;-55
2022/04/24 20:57:18;;;;;;;;;13.00;12.33;;;;;21.80;44.24;99852.48;110452;1261;20708;-55
2022/04/24 20:59:45;;;;;;;;;10.00;10.00;;;;;21.80;44.10;99854.04;110442;1261;23014;-52
2022/04/24 21:02:13;;;;;;;;;12.33;10.67;;;;;21.80;43.96;99854.29;110443;1260;21456;-52
2022/04/24 21:04:41;;;;;;;;;12.33;10.67;;;;;21.79;43.95;99851.61;110404;1261;19874;-57
2022/04/24 21:07:08;;;;;;;;;9.00;9.00;;;;;21.80;43.82;99859.58;110396;1261;20254;-53
2022/04/24 21:09:36;;;;;;;;;10.00;10.00;;;;;21.79;43.86;99858.79;110425;1261;23667;-53
2022/04/24 21:12:03;;;;;;;;;13.00;11.67;;;;;21.80;43.94;99861.02;110420;1261;22162;-54
2022/04/24 21:14:30;;;;;;;;;15.00;13.00;;;;;21.79;43.79;99857.06;110454;1260;20399;-55
2022/04/24 21:16:57;;;;;;;;;13.00;11.00;;;;;21.79;43.70;99857.70;110460;1261;19267;-52
2022/04/24 21:19:28;;;;;;;;;13.00;11.00;;;;;21.78;43.82;99854.59;110494;1261;20988;-52
2022/04/24 21:21:55;;;;;;;;;11.00;10.33;;;;;21.78;43.92;99857.28;110481;1261;23659;-52
2022/04/24 21:24:22;;;;;;;;;12.33;11.33;;;;;21.77;43.70;99853.42;110453;1261;19280;-54
2022/04/24 21:26:49;;;;;;;;;13.00;13.00;;;;;21.78;43.82;99853.70;110393;1260;19554;-53
2022/04/24 21:29:17;;;;;;;;;11.00;11.00;;;;;21.76;43.76;99849.01;110420;1261;20159;-51
2022/04/24 21:31:44;;;;;;;;;13.00;12.33;;;;;21.76;43.84;99855.41;110463;1261;19305;-54
2022/04/24 21:34:11;;;;;;;;;12.00;11.00;;;;;21.75;43.68;99856.24;110472;1261;19705;-52
2022/04/24 21:36:39;;;;;;;;;11.67;11.67;;;;;21.75;43.73;99860.25;110450;1261;22981;-54
2022/04/24 21:39:06;;;;;;;;;13.00;13.00;;;;;21.75;43.47;99859.52;110442;1260;19253;-54
2022/04/24 21:41:34;;;;;;;;;14.00;13.00;;;;;21.76;43.42;99861.23;110450;1261;23199;-52
2022/04/24 21:44:01;;;;;;;;;13.00;10.67;;;;;21.75;43.60;99860.56;110452;1260;20443;-52
2022/04/24 21:46:28;;;;;;;;;11.33;11.33;;;;;21.75;43.62;99861.83;110466;1261;21945;-53
2022/04/24 21:48:55;;;;;;;;;12.33;11.00;;;;;21.76;43.47;99861.91;110441;1261;19840;-53
2022/04/24 21:51:22;;;;;;;;;14.33;12.33;;;;;21.76;43.72;99859.40;110421;1261;23045;-57
2022/04/24 21:53:50;;;;;;;;;13.00;13.00;;;;;21.76;43.41;99861.20;110424;1260;19125;-52
2022/04/24 21:56:17;;;;;;;;;12.50;10.50;;;;;21.76;43.51;99864.77;110427;1261;19486;-52
2022/04/24 21:58:44;;;;;;;;;11.00;11.00;;;;;21.76;43.51;99868.67;110474;1260;21906;-53
2022/04/24 22:01:11;;;;;;;;;13.00;13.00;;;;;21.77;43.54;99871.37;110437;1261;24123;-57
2022/04/24 22:06:23;;;;;;;;;13.67;12.00;;;;;21.76;43.44;99870.81;110461;1261;20343;-53
2022/04/24 22:08:51;;;;;;;;;12.00;12.00;;;;;21.75;43.50;99872.23;110442;1261;19247;-53
2022/04/24 22:11:18;;;;;;;;;10.00;10.00;;;;;21.74;43.32;99870.52;110444;1260;19587;-53
2022/04/24 22:13:45;;;;;;;;;10.00;10.00;;;;;21.75;43.35;99870.48;110462;1261;20245;-53
2022/04/24 22:16:13;;;;;;;;;9.67;9.00;;;;;21.74;43.20;99865.30;110428;1260;19095;-53
2022/04/24 22:18:41;;;;;;;;;10.00;10.00;;;;;21.74;43.26;99869.80;110453;1260;19499;-53
2022/04/24 22:26:38;;;;;;;;;13.00;10.00;;;;;21.72;43.12;99858.09;110448;1261;23793;-53
2022/04/24 22:29:06;;;;;;;;;13.00;10.50;;;;;21.73;43.08;99862.13;110440;1260;20373;-53
2022/04/24 22:31:33;;;;;;;;;12.00;12.00;;;;;21.73;43.14;99861.28;110458;1260;19292;-54
2022/04/24 22:34:00;;;;;;;;;11.33;10.00;;;;;21.73;43.12;99858.77;110478;1261;20913;-53
2022/04/24 22:36:28;;;;;;;;;13.00;11.00;;;;;21.73;43.19;99860.70;110452;1261;23604;-56
2022/04/24 22:38:55;;;;;;;;;9.33;9.33;;;;;21.72;42.90;99857.59;110439;1261;19311;-55
2022/04/24 22:41:22;;;;;;;;;13.33;11.00;;;;;21.72;42.95;99859.40;110438;1261;19484;-53
2022/04/24 22:43:50;;;;;;;;;13.33;13.00;;;;;21.74;43.09;99858.93;110447;1261;20259;-55
2022/04/24 22:46:17;;;;;;;;;10.67;10.67;;;;;21.73;43.10;99857.42;110461;1261;19262;-51
2022/04/24 22:48:44;;;;;;;;;11.33;11.00;;;;;21.73;43.10;99854.91;110437;1261;19740;-53
2022/04/24 22:51:11;;;;;;;;;13.33;11.00;;;;;21.73;43.06;99854.83;110454;1261;20461;-53
2022/04/24 22:53:39;;;;;;;;;9.67;9.67;;;;;21.72;43.07;99849.79;110410;1261;19338;-53
2022/04/24 22:56:06;;;;;;;;;9.00;9.00;;;;;21.71;43.03;99851.63;110448;1261;19529;-53
2022/04/24 22:58:33;;;;;;;;;10.00;9.00;;;;;21.72;42.87;99851.71;110492;1261;20457;-56
2022/04/24 23:01:03;;;;;;;;;9.00;9.00;;;;;21.71;42.75;99852.02;110475;1261;23020;-53
2022/04/24 23:03:30;;;;;;;;;11.00;10.33;;;;;21.72;42.75;99851.55;110457;1260;23592;-51
2022/04/24 23:05:57;;;;;;;;;13.00;13.00;;;;;21.71;42.78;99849.49;110443;1260;20304;-53
2022/04/24 23:08:24;;;;;;;;;9.00;9.00;;;;;21.72;42.73;99852.73;110464;1261;21284;-52
2022/04/24 23:10:52;;;;;;;;;12.00;10.00;;;;;21.73;42.86;99853.05;110470;1261;19415;-53
2022/04/24 23:13:19;;;;;;;;;10.33;10.33;;;;;21.73;42.81;99854.86;110483;1260;22721;-53
2022/04/24 23:15:46;;;;;;;;;10.00;9.33;;;;;21.72;42.74;99852.31;110487;1261;22316;-52
2022/04/24 23:21:10;;;;;;;;;13.00;10.67;;;;;21.72;42.78;99856.08;110457;1261;20596;-54
2022/04/24 23:23:37;;;;;;;;;10.67;9.67;;;;;21.71;42.76;99855.88;110439;1261;19952;-52
2022/04/24 23:26:04;;;;;;;;;12.50;10.00;;;;;21.71;42.77;99856.91;110409;1260;23157;-52
2022/04/24 23:28:32;;;;;;;;;9.00;9.00;;;;;21.72;42.57;99860.36;110513;1261;20521;-57
2022/04/24 23:31:00;;;;;;;;;9.00;9.00;;;;;21.71;42.78;99861.36;110503;1261;24153;-52
2022/04/24 23:33:28;;;;;;;;;12.00;9.00;;;;;21.70;42.65;99860.15;110435;1260;22891;-56
2022/04/24 23:35:55;;;;;;;;;10.00;9.00;;;;;21.71;42.67;99861.91;110443;1261;21986;-53
2022/04/24 23:38:23;;;;;;;;;11.00;10.00;;;;;21.70;42.51;99861.98;110411;1261;19222;-58
2022/04/24 23:40:50;;;;;;;;;9.33;9.33;;;;;21.70;42.59;99865.09;110368;1261;20229;-50
2022/04/24 23:43:17;;;;;;;;;8.00;8.00;;;;;21.71;42.66;99869.16;110493;1261;21646;-57
2022/04/24 23:45:44;;;;;;;;;10.67;10.00;;;;;21.70;42.36;99863.48;110423;1261;19207;-51
2022/04/24 23:48:11;;;;;;;;;11.33;11.33;;;;;21.69;42.51;99863.83;110475;1261;19913;-55
2022/04/24 23:50:39;;;;;;;;;10.67;10.67;;;;;21.69;42.42;99863.11;110458;1260;23439;-53
2022/04/24 23:53:06;;;;;;;;;9.67;9.67;;;;;21.69;42.54;99864.69;110438;1260;19280;-53
2022/04/24 23:55:34;;;;;;;;;10.00;9.67;;;;;21.69;42.45;99871.53;110348;1261;19739;-53
2022/04/24 23:58:01;;;;;;;;;9.67;9.00;;;;;21.71;42.41;99865.39;110524;1261;20487;-52
